createdAt,value
2016-11-05T11:52:08.467Z,1188
2016-11-05T11:52:49.004Z,1140
2016-11-05T11:53:29.501Z,1092
2016-11-05T11:54:10.023Z,1076
2016-11-05T11:54:50.537Z,1124
2016-11-05T11:55:31.078Z,1104
2016-11-05T11:56:11.606Z,968
2016-11-05T11:56:52.115Z,904
2016-11-05T11:57:32.639Z,824
2016-11-05T11:58:13.173Z,728
2016-11-05T11:58:53.691Z,744
2016-11-05T11:59:34.214Z,716
2016-11-05T12:00:14.767Z,740
2016-11-05T12:00:55.307Z,884
2016-11-05T12:01:35.838Z,892
2016-11-05T12:02:16.408Z,844
2016-11-05T12:02:56.934Z,764
2016-11-05T12:03:37.469Z,744
2016-11-05T12:04:18.003Z,720
2016-11-05T12:04:58.524Z,712
2016-11-05T12:05:39.064Z,700
2016-11-05T12:06:19.583Z,688
2016-11-05T12:07:00.119Z,620
2016-11-05T12:07:40.647Z,608
2016-11-05T12:08:21.230Z,648
2016-11-05T12:09:01.761Z,692
2016-11-05T12:09:42.276Z,640
2016-11-05T12:10:22.804Z,544
2016-11-05T12:11:03.311Z,532
2016-11-05T12:11:43.834Z,548
2016-11-05T12:12:24.401Z,652
2016-11-05T12:13:04.924Z,732
2016-11-05T12:13:45.473Z,812
2016-11-05T12:14:25.992Z,836
2016-11-05T12:15:06.513Z,816
2016-11-05T12:15:47.034Z,796
2016-11-05T12:16:27.579Z,748
2016-11-05T12:17:08.094Z,728
2016-11-05T12:17:48.615Z,692
2016-11-05T12:18:29.142Z,652
2016-11-05T12:19:10.031Z,600
2016-11-05T12:19:50.234Z,556
2016-11-05T12:20:30.744Z,544
2016-11-05T12:21:11.295Z,564
2016-11-05T12:21:51.803Z,584
2016-11-05T12:22:32.328Z,616
2016-11-05T12:23:12.858Z,636
2016-11-05T12:23:53.421Z,668
2016-11-05T12:24:33.954Z,700
2016-11-05T12:25:14.492Z,688
2016-11-05T12:25:55.032Z,696
2016-11-05T12:26:35.582Z,712
2016-11-05T12:27:16.142Z,744
2016-11-05T12:27:56.700Z,780
2016-11-05T12:28:37.250Z,840
2016-11-05T12:29:17.778Z,888
2016-11-05T12:29:58.313Z,948
2016-11-05T12:30:38.854Z,972
2016-11-05T12:31:19.398Z,1032
2016-11-05T12:31:59.926Z,1116
2016-11-05T12:32:40.438Z,1272
2016-11-05T12:33:20.973Z,1444
2016-11-05T12:34:01.511Z,1528
2016-11-05T12:34:42.044Z,1616
2016-11-05T12:35:22.566Z,1752
2016-11-05T12:36:03.079Z,1920
2016-11-05T12:36:43.616Z,1984
2016-11-05T12:37:24.137Z,1972
2016-11-05T12:38:04.656Z,1964
2016-11-05T12:38:45.168Z,1920
2016-11-05T12:39:25.693Z,1656
2016-11-05T12:40:06.233Z,1372
2016-11-05T12:40:46.772Z,1284
2016-11-05T12:41:27.294Z,1284
2016-11-05T12:42:07.826Z,1256
2016-11-05T12:42:48.356Z,1220
2016-11-05T12:43:28.896Z,1248
2016-11-05T12:44:09.441Z,1260
2016-11-05T12:44:49.999Z,1220
2016-11-05T12:45:30.553Z,1160
2016-11-05T12:46:11.102Z,1116
2016-11-05T12:46:51.643Z,1092
2016-11-05T12:47:32.171Z,1096
2016-11-05T12:48:12.685Z,1104
2016-11-05T12:48:53.235Z,1072
2016-11-05T12:49:33.765Z,976
2016-11-05T12:50:14.299Z,920
2016-11-05T12:50:54.893Z,876
2016-11-05T12:51:35.485Z,912
2016-11-05T12:52:16.022Z,960
2016-11-05T12:52:56.547Z,936
2016-11-05T12:53:37.169Z,884
2016-11-05T12:54:17.645Z,896
2016-11-05T12:54:58.171Z,936
2016-11-05T12:55:38.718Z,948
2016-11-05T12:56:19.240Z,924
2016-11-05T12:56:59.743Z,896
2016-11-05T12:57:40.285Z,912
2016-11-05T12:58:20.818Z,904
2016-11-05T12:59:01.345Z,924
2016-11-05T12:59:41.895Z,956
2016-11-05T13:00:22.462Z,1028
2016-11-05T13:01:02.983Z,1124
2016-11-05T13:01:43.510Z,1228
2016-11-05T13:02:24.032Z,1280
2016-11-05T13:03:04.582Z,1336
2016-11-05T13:03:45.105Z,1412
2016-11-05T13:04:25.629Z,1516
2016-11-05T13:05:06.172Z,1588
2016-11-05T13:05:46.692Z,1692
2016-11-05T13:06:27.240Z,1784
2016-11-05T13:07:07.773Z,1804
2016-11-05T13:07:48.321Z,1856
2016-11-05T13:08:28.885Z,1996
2016-11-05T13:09:09.468Z,2104
2016-11-05T13:09:49.999Z,2064
2016-11-05T13:10:30.639Z,2020
2016-11-05T13:11:11.179Z,1896
2016-11-05T13:11:51.742Z,1680
2016-11-05T13:12:32.279Z,1508
2016-11-05T13:13:12.815Z,1348
2016-11-05T13:13:53.372Z,1272
2016-11-05T13:14:33.919Z,1308
2016-11-05T13:15:14.446Z,1440
2016-11-05T13:15:54.962Z,1588
2016-11-05T13:16:35.478Z,1852
2016-11-05T13:17:16.020Z,1992
2016-11-05T13:17:56.562Z,2128
2016-11-05T13:18:37.119Z,2148
2016-11-05T13:19:17.644Z,2016
2016-11-05T13:19:58.175Z,1808
2016-11-05T13:20:38.722Z,1688
2016-11-05T13:21:19.233Z,1696
2016-11-05T13:21:59.806Z,1800
2016-11-05T13:22:40.339Z,1896
2016-11-05T13:23:20.887Z,1916
2016-11-05T13:24:01.427Z,1980
2016-11-05T13:24:41.956Z,2072
2016-11-05T13:25:22.504Z,2032
2016-11-05T13:26:03.062Z,1944
2016-11-05T13:26:43.589Z,1908
2016-11-05T13:27:24.170Z,1868
2016-11-05T13:28:04.709Z,2056
2016-11-05T13:28:45.222Z,2700
2016-11-05T13:29:25.801Z,2892
2016-11-05T13:30:06.366Z,3020
2016-11-05T13:30:46.903Z,2912
2016-11-05T13:31:27.429Z,2740
2016-11-05T13:32:07.976Z,2616
2016-11-05T13:32:48.516Z,2524
2016-11-05T13:33:29.068Z,2460
2016-11-05T13:34:09.591Z,2548
2016-11-05T13:34:50.140Z,2644
2016-11-05T13:35:30.689Z,2872
2016-11-05T13:36:11.229Z,3120
2016-11-05T13:36:51.795Z,3312
2016-11-05T13:37:32.373Z,3516
2016-11-05T13:38:12.905Z,3380
2016-11-05T13:38:53.433Z,3132
2016-11-05T13:39:33.954Z,2952
2016-11-05T13:40:14.486Z,2796
2016-11-05T13:40:55.001Z,2776
2016-11-05T13:41:35.532Z,3024
2016-11-05T13:42:16.065Z,2648
2016-11-05T13:42:56.590Z,2700
2016-11-05T13:43:37.114Z,2684
2016-11-05T13:44:17.650Z,2612
2016-11-05T13:44:58.188Z,3008
2016-11-05T13:45:38.720Z,2516
2016-11-05T13:46:19.257Z,2180
2016-11-05T13:46:59.781Z,2204
2016-11-05T13:47:40.338Z,2288
2016-11-05T13:48:20.879Z,2096
2016-11-05T13:49:01.411Z,2044
2016-11-05T13:49:41.948Z,1912
2016-11-05T13:50:22.480Z,1784
2016-11-05T13:51:03.003Z,1556
2016-11-05T13:51:43.568Z,1676
2016-11-05T13:52:24.094Z,1776
2016-11-05T13:53:04.619Z,1916
2016-11-05T13:53:45.171Z,1740
2016-11-05T13:54:25.718Z,1616
2016-11-05T13:55:06.254Z,1764
2016-11-05T13:55:46.797Z,1388
2016-11-05T13:56:27.324Z,1320
2016-11-05T13:57:07.861Z,1552
2016-11-05T13:57:48.396Z,1776
2016-11-05T13:58:28.922Z,1784
2016-11-05T13:59:09.461Z,1752
2016-11-05T13:59:50.005Z,1996
2016-11-05T14:00:30.529Z,1576
2016-11-05T14:01:11.050Z,1940
2016-11-05T14:01:51.575Z,2504
2016-11-05T14:02:32.107Z,2628
2016-11-05T14:03:12.624Z,2772
2016-11-05T14:03:53.159Z,2656
2016-11-05T14:04:33.708Z,2568
2016-11-05T14:05:14.284Z,2480
2016-11-05T14:05:54.848Z,2308
2016-11-05T14:06:35.421Z,2800
2016-11-05T14:07:15.956Z,2860
2016-11-05T14:07:56.481Z,2476
2016-11-05T14:08:37.038Z,2084
2016-11-05T14:09:17.546Z,1948
2016-11-05T14:09:58.100Z,1964
2016-11-05T14:10:38.642Z,1952
2016-11-05T14:11:19.180Z,1796
2016-11-05T14:11:59.721Z,1720
2016-11-05T14:12:40.232Z,1888
2016-11-05T14:13:20.753Z,2216
2016-11-05T14:14:01.275Z,2512
2016-11-05T14:14:41.826Z,2620
2016-11-05T14:15:22.394Z,2604
2016-11-05T14:16:02.954Z,2432
2016-11-05T14:16:43.525Z,2056
2016-11-05T14:17:24.045Z,2052
2016-11-05T14:18:04.636Z,1672
2016-11-05T14:18:45.151Z,1604
2016-11-05T14:19:25.680Z,2144
2016-11-05T14:20:06.227Z,1696
2016-11-05T14:20:46.747Z,1420
2016-11-05T14:21:27.277Z,1412
2016-11-05T14:22:07.809Z,1468
2016-11-05T14:22:48.315Z,1496
2016-11-05T14:23:28.860Z,1432
2016-11-05T14:24:09.398Z,1164
2016-11-05T14:24:49.971Z,1136
2016-11-05T14:25:30.527Z,1156
2016-11-05T14:26:11.068Z,984
2016-11-05T14:26:51.624Z,1064
2016-11-05T14:27:32.166Z,1440
2016-11-05T14:28:12.733Z,1584
2016-11-05T14:28:53.261Z,1380
2016-11-05T14:29:33.794Z,1360
2016-11-05T14:30:14.315Z,1372
2016-11-05T14:30:54.833Z,1404
2016-11-05T14:31:35.350Z,1600
2016-11-05T14:32:15.882Z,1576
2016-11-05T14:32:56.428Z,1664
2016-11-05T14:33:36.924Z,1632
2016-11-05T14:34:17.486Z,1540
2016-11-05T14:34:58.021Z,1272
2016-11-05T14:35:38.546Z,880
2016-11-05T14:36:19.074Z,832
2016-11-05T14:36:59.636Z,856
2016-11-05T14:37:40.161Z,764
2016-11-05T14:38:20.692Z,788
2016-11-05T14:39:01.221Z,972
2016-11-05T14:39:41.823Z,1044
2016-11-05T14:40:22.353Z,824
2016-11-05T14:41:02.893Z,760
2016-11-05T14:41:43.417Z,732
2016-11-05T14:42:23.974Z,780
2016-11-05T14:43:04.493Z,940
2016-11-05T14:43:45.064Z,904
2016-11-05T14:44:25.578Z,816
2016-11-05T14:45:06.106Z,968
2016-11-05T14:45:46.652Z,1164
2016-11-05T14:46:27.162Z,1048
2016-11-05T14:47:07.730Z,980
2016-11-05T14:47:48.276Z,1028
2016-11-05T14:48:28.800Z,1060
2016-11-05T14:49:09.302Z,1120
2016-11-05T14:49:49.812Z,1432
2016-11-05T14:50:30.351Z,1140
2016-11-05T14:51:10.865Z,1224
2016-11-05T14:51:51.401Z,1160
2016-11-05T14:52:31.940Z,1228
2016-11-05T14:53:12.469Z,1288
2016-11-05T14:53:52.998Z,1304
2016-11-05T14:54:33.514Z,1436
2016-11-05T14:55:14.062Z,1428
2016-11-05T14:55:54.590Z,1584
2016-11-05T14:56:35.140Z,1508
2016-11-05T14:57:15.681Z,1624
2016-11-05T14:57:56.222Z,1620
2016-11-05T14:58:36.768Z,1268
2016-11-05T14:59:17.303Z,1260
2016-11-05T14:59:57.869Z,1560
2016-11-05T15:00:38.423Z,1580
2016-11-05T15:01:18.952Z,1200
2016-11-05T15:01:59.476Z,860
2016-11-05T15:02:40.086Z,868
2016-11-05T15:03:20.604Z,920
2016-11-05T15:04:01.175Z,936
2016-11-05T15:04:41.711Z,836
2016-11-05T15:05:22.303Z,704
2016-11-05T15:06:02.843Z,616
2016-11-05T15:06:43.380Z,584
2016-11-05T15:07:23.944Z,568
2016-11-05T15:08:04.503Z,540
2016-11-05T15:08:45.144Z,516
2016-11-05T15:09:25.664Z,480
2016-11-05T15:10:06.272Z,476
2016-11-05T15:10:47.048Z,492
2016-11-05T15:11:27.595Z,572
2016-11-05T15:12:08.112Z,600
2016-11-05T15:12:48.645Z,488
2016-11-05T15:13:29.170Z,452
2016-11-05T15:14:09.702Z,448
2016-11-05T15:14:50.257Z,440
2016-11-05T15:15:30.952Z,444
2016-11-05T15:16:11.619Z,460
2016-11-05T15:16:52.191Z,492
2016-11-05T15:17:32.792Z,532
2016-11-05T15:18:13.307Z,544
2016-11-05T15:18:53.849Z,540
2016-11-05T15:19:34.391Z,520
2016-11-05T15:20:14.904Z,504
2016-11-05T15:20:55.711Z,472
2016-11-05T15:21:36.039Z,460
2016-11-05T15:22:16.596Z,484
2016-11-05T15:22:57.125Z,592
2016-11-05T15:23:37.665Z,688
2016-11-05T15:24:18.189Z,624
2016-11-05T15:24:58.712Z,608
2016-11-05T15:25:39.238Z,628
2016-11-05T15:26:19.770Z,672
2016-11-05T15:27:00.288Z,684
2016-11-05T15:27:40.801Z,660
2016-11-05T15:28:21.346Z,640
2016-11-05T15:29:01.866Z,588
2016-11-05T15:29:42.396Z,524
2016-11-05T15:30:22.924Z,500
2016-11-05T15:31:03.448Z,476
2016-11-05T15:31:43.961Z,452
2016-11-05T15:32:24.487Z,424
2016-11-05T15:33:05.010Z,400
2016-11-05T15:33:45.549Z,380
2016-11-05T15:34:26.082Z,368
2016-11-05T15:35:06.618Z,360
2016-11-05T15:35:47.138Z,364
2016-11-05T15:36:27.664Z,376
2016-11-05T15:37:08.194Z,404
2016-11-05T15:37:48.704Z,420
2016-11-05T15:38:29.214Z,420
2016-11-05T15:39:09.748Z,408
2016-11-05T15:39:50.272Z,396
2016-11-05T15:40:30.797Z,384
2016-11-05T15:41:11.318Z,376
2016-11-05T15:41:51.855Z,380
2016-11-05T15:42:32.379Z,380
2016-11-05T15:43:12.886Z,372
2016-11-05T15:43:53.421Z,328
2016-11-05T15:44:33.940Z,304
2016-11-05T15:45:14.471Z,296
2016-11-05T15:45:55.018Z,272
2016-11-05T15:46:35.541Z,248
2016-11-05T15:47:16.063Z,224
2016-11-05T15:47:56.601Z,204
2016-11-05T15:48:37.129Z,204
2016-11-05T15:49:17.674Z,216
2016-11-05T15:49:58.206Z,228
2016-11-05T15:50:38.756Z,224
2016-11-05T15:51:19.275Z,208
2016-11-05T15:51:59.812Z,196
2016-11-05T15:52:40.340Z,160
2016-11-05T15:53:20.883Z,132
2016-11-05T15:54:01.383Z,128
2016-11-05T15:54:41.911Z,124
2016-11-05T15:55:22.437Z,120
2016-11-05T15:56:02.983Z,116
2016-11-05T15:56:43.504Z,104
2016-11-05T15:57:24.073Z,96
2016-11-05T15:58:04.656Z,88
2016-11-05T15:58:45.194Z,88
2016-11-05T15:59:25.726Z,84
2016-11-05T16:00:06.251Z,80
2016-11-05T16:00:46.778Z,72
2016-11-05T16:01:27.285Z,68
2016-11-05T16:02:07.812Z,68
2016-11-05T16:02:48.317Z,72
2016-11-05T16:03:28.849Z,72
2016-11-05T16:04:09.380Z,76
2016-11-05T16:04:49.909Z,68
2016-11-05T16:05:30.428Z,60
2016-11-05T16:06:10.964Z,52
2016-11-05T16:06:51.482Z,52
2016-11-05T16:07:32.015Z,52
2016-11-05T16:08:12.540Z,40
2016-11-05T16:08:53.078Z,36
2016-11-05T16:09:33.603Z,36
2016-11-05T16:10:14.104Z,32
2016-11-05T16:10:54.621Z,24
2016-11-05T16:11:35.183Z,24
2016-11-05T16:12:16.625Z,20
2016-11-05T16:12:57.137Z,16
2016-11-05T16:13:37.656Z,16
2016-11-05T16:14:18.202Z,16
2016-11-05T16:14:58.834Z,16
2016-11-05T16:15:39.361Z,12
2016-11-05T16:16:19.860Z,12
2016-11-05T16:17:00.389Z,12
2016-11-05T16:17:40.914Z,12
2016-11-05T16:18:21.621Z,8
2016-11-05T16:19:02.144Z,8
2016-11-05T16:19:42.699Z,4
2016-11-05T16:20:23.216Z,8
2016-11-05T16:21:03.753Z,4
2016-11-05T16:21:44.269Z,4
2016-11-05T16:22:24.852Z,4
2016-11-05T16:23:05.432Z,4
2016-11-05T16:23:45.941Z,4
2016-11-05T16:24:26.498Z,4
2016-11-05T16:25:07.006Z,0
2016-11-05T16:25:47.589Z,4
2016-11-05T16:26:28.121Z,4
2016-11-05T16:27:08.665Z,0
2016-11-05T16:27:49.202Z,0
2016-11-05T16:28:29.726Z,4
2016-11-05T16:29:10.254Z,4
2016-11-05T16:29:50.769Z,4
2016-11-05T16:30:31.319Z,0
2016-11-05T16:31:11.856Z,0
2016-11-05T16:31:52.386Z,0
2016-11-05T16:32:32.915Z,0
2016-11-05T16:33:13.424Z,0
2016-11-05T16:33:53.964Z,0
2016-11-05T16:34:34.500Z,0
2016-11-05T16:35:15.014Z,0
2016-11-05T16:35:55.533Z,0
2016-11-05T16:36:36.070Z,0
2016-11-05T16:37:16.613Z,0
2016-11-05T16:37:57.149Z,0
2016-11-05T16:38:37.695Z,0
2016-11-05T16:39:18.221Z,0
2016-11-05T16:39:58.740Z,0
2016-11-05T16:40:39.292Z,0
2016-11-05T16:41:19.823Z,0
2016-11-05T16:42:00.343Z,0
2016-11-05T16:42:40.890Z,0
2016-11-05T16:43:21.417Z,0
2016-11-05T16:44:01.933Z,0
2016-11-05T16:44:42.447Z,0
2016-11-05T16:45:22.970Z,0
2016-11-05T16:46:03.478Z,0
2016-11-05T16:46:44.001Z,0
2016-11-05T16:47:24.537Z,0
2016-11-05T16:48:05.072Z,0
2016-11-05T16:48:45.597Z,0
2016-11-05T16:49:26.135Z,0
2016-11-05T16:50:06.669Z,0
2016-11-05T16:50:47.203Z,0
2016-11-05T16:51:27.727Z,0
2016-11-05T16:52:08.251Z,0
2016-11-05T16:52:48.781Z,0
2016-11-05T16:53:29.315Z,0
2016-11-05T16:54:09.845Z,0
2016-11-05T16:54:50.395Z,0
2016-11-05T16:55:30.993Z,0
2016-11-05T16:56:11.518Z,0
2016-11-05T16:56:52.046Z,0
2016-11-05T16:57:32.572Z,0
2016-11-05T16:58:13.091Z,0
2016-11-05T16:58:53.630Z,0
2016-11-05T16:59:34.146Z,0
2016-11-05T17:00:14.669Z,0
2016-11-05T17:00:55.191Z,0
2016-11-05T17:01:35.728Z,0
2016-11-05T17:02:16.269Z,0
2016-11-05T17:02:56.813Z,0
2016-11-05T17:03:37.337Z,0
2016-11-05T17:04:17.845Z,0
2016-11-05T17:04:58.373Z,0
2016-11-05T17:05:38.890Z,0
2016-11-05T17:06:19.411Z,0
2016-11-05T17:06:59.949Z,0
2016-11-05T17:07:40.485Z,0
2016-11-05T17:08:21.002Z,0
2016-11-05T17:09:01.539Z,0
2016-11-05T17:09:42.062Z,0
2016-11-05T17:10:22.593Z,0
2016-11-05T17:11:03.119Z,0
2016-11-05T17:11:43.661Z,0
2016-11-05T17:12:24.197Z,0
2016-11-05T17:13:04.732Z,0
2016-11-05T17:13:45.248Z,0
2016-11-05T17:14:25.749Z,0
2016-11-05T17:15:06.282Z,0
2016-11-05T17:15:46.799Z,0
2016-11-05T17:16:27.337Z,0
2016-11-05T17:17:07.876Z,0
2016-11-05T17:17:48.392Z,0
2016-11-05T17:18:28.903Z,0
2016-11-05T17:19:09.437Z,0
2016-11-05T17:19:49.972Z,0
2016-11-05T17:20:30.508Z,0
2016-11-05T17:21:11.033Z,0
2016-11-05T17:21:51.553Z,0
2016-11-05T17:22:32.094Z,0
2016-11-05T17:23:12.625Z,0
2016-11-05T17:23:53.171Z,0
2016-11-05T17:24:33.687Z,0
2016-11-05T17:25:14.168Z,0
2016-11-05T17:25:54.681Z,0
2016-11-05T17:26:35.212Z,0
2016-11-05T17:27:15.753Z,0
2016-11-05T17:27:56.281Z,0
2016-11-05T17:28:36.815Z,0
2016-11-05T17:29:17.355Z,0
2016-11-05T17:29:57.885Z,0
2016-11-05T17:30:38.416Z,0
2016-11-05T17:31:18.948Z,0
2016-11-05T17:31:59.492Z,0
2016-11-05T17:32:40.012Z,0
2016-11-05T17:33:20.556Z,0
2016-11-05T17:34:01.056Z,0
2016-11-05T17:34:41.596Z,0
2016-11-05T17:35:22.132Z,0
2016-11-05T17:36:02.671Z,0
2016-11-05T17:36:43.213Z,0
2016-11-05T17:37:23.755Z,0
2016-11-05T17:38:04.288Z,0
2016-11-05T17:38:44.811Z,0
2016-11-05T17:39:25.339Z,0
2016-11-05T17:40:05.864Z,0
2016-11-05T17:40:46.378Z,0
2016-11-05T17:41:26.896Z,0
2016-11-05T17:42:07.431Z,0
2016-11-05T17:42:47.980Z,0
2016-11-05T17:43:28.517Z,0
2016-11-05T17:44:09.043Z,0
2016-11-05T17:44:49.560Z,0
2016-11-05T17:45:30.228Z,0
2016-11-05T17:46:10.763Z,0
2016-11-05T17:46:51.295Z,0
2016-11-05T17:47:31.832Z,0
2016-11-05T17:48:12.363Z,0
2016-11-05T17:48:52.890Z,0
2016-11-05T17:49:33.413Z,0
2016-11-05T17:50:13.946Z,0
2016-11-05T17:50:54.600Z,0
2016-11-05T17:51:35.137Z,0
2016-11-05T17:52:15.663Z,0
2016-11-05T17:52:56.182Z,0
2016-11-05T17:53:36.709Z,0
2016-11-05T17:54:17.246Z,0
2016-11-05T17:54:57.780Z,0
2016-11-05T17:55:38.303Z,0
2016-11-05T17:56:18.863Z,0
2016-11-05T17:56:59.368Z,0
2016-11-05T17:57:39.891Z,0
2016-11-05T17:58:20.425Z,0
2016-11-05T17:59:00.956Z,0
2016-11-05T17:59:41.487Z,0
2016-11-05T18:00:22.020Z,0
2016-11-05T18:01:02.554Z,0
2016-11-05T18:01:43.090Z,0
2016-11-05T18:02:23.633Z,0
2016-11-05T18:03:04.127Z,0
2016-11-05T18:03:44.644Z,0
2016-11-05T18:04:25.185Z,0
2016-11-05T18:05:05.700Z,0
2016-11-05T18:05:46.225Z,0
2016-11-05T18:06:26.770Z,0
2016-11-05T18:07:07.287Z,0
2016-11-05T18:07:47.814Z,0
2016-11-05T18:08:28.333Z,0
2016-11-05T18:09:08.868Z,0
2016-11-05T18:09:49.415Z,0
2016-11-05T18:10:29.939Z,0
2016-11-05T18:11:10.461Z,0
2016-11-05T18:11:50.985Z,0
2016-11-05T18:12:31.502Z,0
2016-11-05T18:13:12.040Z,0
2016-11-05T18:13:52.564Z,0
2016-11-05T18:14:33.075Z,0
2016-11-05T18:15:13.602Z,0
2016-11-05T18:15:54.138Z,0
2016-11-05T18:16:34.687Z,0
2016-11-05T18:17:15.202Z,0
2016-11-05T18:17:55.736Z,0
2016-11-05T18:18:36.276Z,0
2016-11-05T18:19:16.824Z,0
2016-11-05T18:19:57.347Z,0
2016-11-05T18:20:37.907Z,0
2016-11-05T18:21:18.424Z,0
2016-11-05T18:21:58.944Z,0
2016-11-05T18:22:39.480Z,0
2016-11-05T18:23:20.011Z,0
2016-11-05T18:24:00.514Z,0
2016-11-05T18:24:41.047Z,0
2016-11-05T18:25:21.581Z,0
2016-11-05T18:26:02.117Z,0
2016-11-05T18:26:42.632Z,0
2016-11-05T18:27:23.181Z,0
2016-11-05T18:28:03.707Z,0
2016-11-05T18:28:44.225Z,0
2016-11-05T18:29:24.755Z,0
2016-11-05T18:30:05.312Z,0
2016-11-05T18:30:45.827Z,0
2016-11-05T18:31:26.348Z,0
2016-11-05T18:32:06.890Z,0
2016-11-05T18:32:47.422Z,0
2016-11-05T18:33:27.957Z,0
2016-11-05T18:34:08.477Z,0
2016-11-05T18:34:48.995Z,0
2016-11-05T18:35:29.532Z,0
2016-11-05T18:36:10.059Z,0
2016-11-05T18:36:50.584Z,0
2016-11-05T18:37:31.099Z,0
2016-11-05T18:38:11.640Z,0
2016-11-05T18:38:52.178Z,0
2016-11-05T18:39:32.705Z,0
2016-11-05T18:40:13.206Z,0
2016-11-05T18:40:53.727Z,0
2016-11-05T18:41:34.260Z,0
2016-11-05T18:42:14.793Z,0
2016-11-05T18:42:55.339Z,0
2016-11-05T18:43:35.869Z,0
2016-11-05T18:44:16.449Z,0
2016-11-05T18:44:56.971Z,0
2016-11-05T18:45:37.500Z,0
2016-11-05T18:46:18.051Z,0
2016-11-05T18:46:58.590Z,0
2016-11-05T18:47:39.116Z,0
2016-11-05T18:48:19.633Z,0
2016-11-05T18:49:00.165Z,0
2016-11-05T18:49:40.700Z,0
2016-11-05T18:50:21.235Z,0
2016-11-05T18:51:01.765Z,0
2016-11-05T18:51:42.285Z,0
2016-11-05T18:52:22.804Z,0
2016-11-05T18:53:03.344Z,0
2016-11-05T18:53:43.863Z,0
2016-11-05T18:54:24.388Z,0
2016-11-05T18:55:04.928Z,0
2016-11-05T18:55:45.442Z,0
2016-11-05T18:56:25.970Z,0
2016-11-05T18:57:06.488Z,0
2016-11-05T18:57:47.006Z,0
2016-11-05T18:58:27.548Z,0
2016-11-05T18:59:08.092Z,0
2016-11-05T18:59:48.669Z,0
2016-11-05T19:00:29.204Z,0
2016-11-05T19:01:09.748Z,0
2016-11-05T19:01:50.269Z,0
2016-11-05T19:02:30.796Z,0
2016-11-05T19:03:11.301Z,0
2016-11-05T19:03:51.832Z,0
2016-11-05T19:04:32.352Z,0
2016-11-05T19:05:12.899Z,0
2016-11-05T19:05:53.411Z,0
2016-11-05T19:06:33.953Z,0
2016-11-05T19:07:14.496Z,0
2016-11-05T19:07:55.023Z,0
2016-11-05T19:08:35.570Z,0
2016-11-05T19:09:16.100Z,0
2016-11-05T19:09:56.616Z,0
2016-11-05T19:10:37.152Z,0
2016-11-05T19:11:17.687Z,0
2016-11-05T19:11:58.222Z,0
2016-11-05T19:12:38.736Z,0
2016-11-05T19:13:19.247Z,0
2016-11-05T19:13:59.775Z,0
2016-11-05T19:14:40.296Z,0
2016-11-05T19:15:20.849Z,0
2016-11-05T19:16:01.367Z,0
2016-11-05T19:16:41.911Z,0
2016-11-05T19:17:22.428Z,0
2016-11-05T19:18:02.943Z,0
2016-11-05T19:18:43.455Z,0
2016-11-05T19:19:23.997Z,0
2016-11-05T19:20:04.541Z,0
2016-11-05T19:20:45.059Z,0
2016-11-05T19:21:25.568Z,0
2016-11-05T19:22:06.111Z,0
2016-11-05T19:22:46.632Z,0
2016-11-05T19:23:27.139Z,0
2016-11-05T19:24:07.668Z,0
2016-11-05T19:24:48.207Z,0
2016-11-05T19:25:28.732Z,0
2016-11-05T19:26:09.275Z,0
2016-11-05T19:26:49.811Z,0
2016-11-05T19:27:30.323Z,0
2016-11-05T19:28:10.849Z,0
2016-11-05T19:28:51.378Z,0
2016-11-05T19:29:31.919Z,0
2016-11-05T19:30:12.429Z,0
2016-11-05T19:30:52.967Z,0
2016-11-05T19:31:33.483Z,0
2016-11-05T19:32:14.007Z,0
2016-11-05T19:32:54.529Z,0
2016-11-05T19:33:35.067Z,0
2016-11-05T19:34:15.587Z,0
2016-11-05T19:34:56.120Z,0
2016-11-05T19:35:36.633Z,0
2016-11-05T19:36:17.173Z,0
2016-11-05T19:36:57.703Z,0
2016-11-05T19:37:38.235Z,0
2016-11-05T19:38:18.760Z,0
2016-11-05T19:38:59.280Z,0
2016-11-05T19:39:39.824Z,0
2016-11-05T19:40:20.367Z,0
2016-11-05T19:41:00.897Z,0
2016-11-05T19:41:41.418Z,0
2016-11-05T19:42:21.932Z,0
2016-11-05T19:43:02.473Z,0
2016-11-05T19:43:43.009Z,0
2016-11-05T19:44:23.539Z,0
2016-11-05T19:45:04.062Z,0
2016-11-05T19:45:44.583Z,0
2016-11-05T19:46:25.126Z,0
2016-11-05T19:47:05.665Z,0
2016-11-05T19:47:46.182Z,0
2016-11-05T19:48:26.703Z,0
2016-11-05T19:49:07.240Z,0
2016-11-05T19:49:47.781Z,0
2016-11-05T19:50:28.322Z,0
2016-11-05T19:51:08.851Z,0
2016-11-05T19:51:49.371Z,0
2016-11-05T19:52:29.882Z,0
2016-11-05T19:53:10.419Z,0
2016-11-05T19:53:50.944Z,0
2016-11-05T19:54:31.469Z,0
2016-11-05T19:55:11.988Z,0
2016-11-05T19:55:52.527Z,0
2016-11-05T19:56:33.040Z,0
2016-11-05T19:57:13.545Z,0
2016-11-05T19:57:54.075Z,0
2016-11-05T19:58:34.597Z,0
2016-11-05T19:59:15.122Z,0
2016-11-05T19:59:55.641Z,0
2016-11-05T20:00:36.180Z,0
2016-11-05T20:01:16.717Z,0
2016-11-05T20:01:57.256Z,0
2016-11-05T20:02:37.777Z,0
2016-11-05T20:03:18.287Z,0
2016-11-05T20:03:58.817Z,0
2016-11-05T20:04:39.356Z,0
2016-11-05T20:05:19.878Z,0
2016-11-05T20:06:00.377Z,0
2016-11-05T20:06:40.896Z,0
2016-11-05T20:07:21.417Z,0
2016-11-05T20:08:01.926Z,0
2016-11-05T20:08:42.477Z,0
2016-11-05T20:09:23.001Z,0
2016-11-05T20:10:03.528Z,0
2016-11-05T20:10:44.039Z,0
2016-11-05T20:11:24.556Z,0
2016-11-05T20:12:05.095Z,0
2016-11-05T20:12:45.606Z,0
2016-11-05T20:13:26.122Z,0
2016-11-05T20:14:06.651Z,0
2016-11-05T20:14:47.195Z,0
2016-11-05T20:15:27.732Z,0
2016-11-05T20:16:08.248Z,0
2016-11-05T20:16:48.770Z,0
2016-11-05T20:17:29.302Z,0
2016-11-05T20:18:09.816Z,0
2016-11-05T20:18:50.342Z,0
2016-11-05T20:19:30.882Z,0
2016-11-05T20:20:11.423Z,0
2016-11-05T20:20:51.936Z,0
2016-11-05T20:21:32.442Z,0
2016-11-05T20:22:12.985Z,0
2016-11-05T20:22:53.502Z,0
2016-11-05T20:23:34.041Z,0
2016-11-05T20:24:14.578Z,0
2016-11-05T20:24:55.113Z,0
2016-11-05T20:25:35.646Z,0
2016-11-05T20:26:16.170Z,0
2016-11-05T20:26:56.703Z,0
2016-11-05T20:27:37.228Z,0
2016-11-05T20:28:17.781Z,0
2016-11-05T20:28:58.304Z,0
2016-11-05T20:29:38.843Z,0
2016-11-05T20:30:19.366Z,0
2016-11-05T20:30:59.920Z,0
2016-11-05T20:31:40.456Z,0
2016-11-05T20:32:20.973Z,0
2016-11-05T20:33:01.517Z,0
2016-11-05T20:33:42.049Z,0
2016-11-05T20:34:22.583Z,0
2016-11-05T20:35:03.114Z,0
2016-11-05T20:35:43.659Z,0
2016-11-05T20:36:24.185Z,0
2016-11-05T20:37:04.708Z,0
2016-11-05T20:37:45.246Z,0
2016-11-05T20:38:25.784Z,0
2016-11-05T20:39:06.328Z,0
2016-11-05T20:39:46.857Z,0
2016-11-05T20:40:27.393Z,0
2016-11-05T20:41:07.916Z,0
2016-11-05T20:41:48.449Z,0
2016-11-05T20:42:28.980Z,0
2016-11-05T20:43:09.497Z,0
2016-11-05T20:43:50.011Z,0
2016-11-05T20:44:30.533Z,0
2016-11-05T20:45:11.067Z,0
2016-11-05T20:45:51.594Z,0
2016-11-05T20:46:32.110Z,0
2016-11-05T20:47:12.649Z,0
2016-11-05T20:47:53.185Z,0
2016-11-05T20:48:33.697Z,0
2016-11-05T20:49:14.220Z,0
2016-11-05T20:49:54.757Z,0
2016-11-05T20:50:35.299Z,0
2016-11-05T20:51:15.836Z,0
2016-11-05T20:51:56.365Z,0
2016-11-05T20:52:36.962Z,0
2016-11-05T20:53:17.487Z,0
2016-11-05T20:53:58.020Z,0
2016-11-05T20:54:38.546Z,0
2016-11-05T20:55:19.075Z,0
2016-11-05T20:55:59.601Z,0
2016-11-05T20:56:40.135Z,0
2016-11-05T20:57:20.673Z,0
2016-11-05T20:58:01.219Z,0
2016-11-05T20:58:41.751Z,0
2016-11-05T20:59:22.263Z,0
2016-11-05T21:00:02.814Z,0
2016-11-05T21:00:43.349Z,0
2016-11-05T21:01:23.881Z,0
2016-11-05T21:02:04.421Z,0
2016-11-05T21:02:44.940Z,0
2016-11-05T21:03:25.471Z,0
2016-11-05T21:04:06.009Z,0
2016-11-05T21:04:46.528Z,0
2016-11-05T21:05:27.051Z,0
2016-11-05T21:06:07.580Z,0
2016-11-05T21:06:48.112Z,0
2016-11-05T21:07:28.653Z,0
2016-11-05T21:08:09.212Z,0
2016-11-05T21:08:49.752Z,0
2016-11-05T21:09:30.278Z,0
2016-11-05T21:10:10.805Z,0
2016-11-05T21:10:51.327Z,0
2016-11-05T21:11:31.869Z,0
2016-11-05T21:12:12.402Z,0
2016-11-05T21:12:52.949Z,0
2016-11-05T21:13:33.458Z,0
2016-11-05T21:14:13.977Z,0
2016-11-05T21:14:54.510Z,0
2016-11-05T21:15:35.042Z,0
2016-11-05T21:16:15.579Z,0
2016-11-05T21:16:56.110Z,0
2016-11-05T21:17:36.629Z,0
2016-11-05T21:18:17.171Z,0
2016-11-05T21:18:57.707Z,0
2016-11-05T21:19:38.234Z,0
2016-11-05T21:20:18.771Z,0
2016-11-05T21:20:59.309Z,0
2016-11-05T21:21:39.816Z,0
2016-11-05T21:22:20.354Z,0
2016-11-05T21:23:00.885Z,0
2016-11-05T21:23:41.411Z,0
2016-11-05T21:24:21.965Z,0
2016-11-05T21:25:02.472Z,0
2016-11-05T21:25:43.008Z,0
2016-11-05T21:26:23.543Z,0
2016-11-05T21:27:04.094Z,0